Time;durP1;ratioP1;P1;durP2;ratioP2;P2;SDS_P1;SDS_P2;PMS_P1;PMS_P2;Temp;Humidity;BMP_temperature;BMP_pressure;BME280_temperature;BME280_humidity;BME280_pressure;Samples;Min_cycle;Max_cycle;Signal;HPM_P1;HPM_P2
2023/02/26 00:02:10;;;;;;;;;;;;;;;-0.77;81.72;95843.06;4973780;28;20322;-74
2023/02/26 00:04:36;;;;;;;;;;;;;;;-0.79;82.54;95847.59;4979302;28;19943;-74
2023/02/26 00:07:03;;;;;;;;;;;;;;;-0.82;82.39;95850.47;4995962;28;19950;-74
2023/02/26 00:09:29;;;;;;;;;;;;;;;-0.81;81.50;95834.06;4994467;28;20316;-74
2023/02/26 00:11:56;;;;;;;;;;;;;;;-0.83;82.07;95844.53;4997050;28;20293;-74
2023/02/26 00:14:22;;;;;;;;;;;;;;;-0.84;82.49;95854.97;4993964;28;19970;-74
2023/02/26 00:16:52;;;;;;;;;;;;;;;-0.85;82.31;95854.19;4995748;28;19955;-74
2023/02/26 00:19:19;;;;;;;;;;;;;;;-0.87;82.51;95856.09;4995834;28;19960;-74
2023/02/26 00:21:44;;;;;;;;;;;;;;;-0.90;82.45;95851.28;4995378;28;19953;-74
2023/02/26 00:24:10;;;;;;;;;;;;;;;-0.94;81.58;95850.00;4995400;28;20401;-74
2023/02/26 00:26:36;;;;;;;;;;;;;;;-0.92;82.38;95849.84;4996747;28;20429;-74
2023/02/26 00:29:03;;;;;;;;;;;;;;;-0.88;82.12;95849.34;4994193;28;19947;-74
2023/02/26 00:31:29;;;;;;;;;;;;;;;-0.87;82.10;95850.16;4978500;28;19952;-74
2023/02/26 00:33:56;;;;;;;;;;;;;;;-0.90;82.02;95850.50;4996195;28;19965;-76
2023/02/26 00:36:33;;;;;;;;;;;;;;;-0.96;81.50;95845.97;4995188;28;19949;-74
2023/02/26 00:39:11;;;;;;;;;;;;;;;-0.95;82.04;95857.88;4995344;28;19954;-74
2023/02/26 00:41:38;;;;;;;;;;;;;;;-1.03;81.51;95845.78;4994779;28;19975;-74
2023/02/26 00:44:06;;;;;;;;;;;;;;;-1.04;81.92;95850.16;4995342;28;20303;-73
2023/02/26 00:46:39;;;;;;;;;;;;;;;-1.07;80.91;95842.75;4995200;28;19965;-75
2023/02/26 00:49:08;;;;;;;;;;;;;;;-1.15;81.36;95853.03;4995079;28;19950;-73
2023/02/26 00:51:47;;;;;;;;;;;;;;;-1.25;81.05;95844.66;4993903;28;19953;-76
2023/02/26 00:54:13;;;;;;;;;;;;;;;-1.30;81.56;95854.59;4995952;28;20001;-77
2023/02/26 00:56:39;;;;;;;;;;;;;;;-1.33;81.62;95854.94;4995093;28;19952;-75
2023/02/26 00:59:04;;;;;;;;;;;;;;;-1.32;81.90;95852.22;4978148;28;20001;-75
2023/02/26 01:01:30;;;;;;;;;;;;;;;-1.30;81.39;95846.91;4995150;28;19957;-75
2023/02/26 01:03:56;;;;;;;;;;;;;;;-1.33;81.26;95849.78;4996349;28;20457;-73
2023/02/26 01:06:26;;;;;;;;;;;;;;;-1.34;81.77;95855.91;4994680;28;20469;-73
2023/02/26 01:09:04;;;;;;;;;;;;;;;-1.35;81.62;95849.16;4994282;28;20409;-73
2023/02/26 01:11:31;;;;;;;;;;;;;;;-1.37;81.77;95854.44;4993991;28;19952;-73
2023/02/26 01:13:57;;;;;;;;;;;;;;;-1.38;81.94;95858.00;4995594;28;19970;-73
2023/02/26 01:16:26;;;;;;;;;;;;;;;-1.37;81.94;95856.22;4994443;28;19961;-74
2023/02/26 01:19:00;;;;;;;;;;;;;;;-1.36;81.68;95855.28;4994210;28;20335;-73
2023/02/26 01:21:36;;;;;;;;;;;;;;;-1.39;81.84;95853.00;4994336;28;19962;-73
2023/02/26 01:24:04;;;;;;;;;;;;;;;-1.45;81.93;95849.28;4994724;28;19957;-73
2023/02/26 01:26:30;;;;;;;;;;;;;;;-1.49;82.26;95856.53;4994526;28;19953;-73
2023/02/26 01:28:56;;;;;;;;;;;;;;;-1.49;82.30;95859.09;4994197;28;19955;-73
2023/02/26 01:31:40;;;;;;;;;;;;;;;-1.50;82.44;95854.09;4994193;28;19947;-73
2023/02/26 01:34:09;;;;;;;;;;;;;;;-1.48;82.36;95858.13;4995456;28;20040;-74
2023/02/26 01:36:40;;;;;;;;;;;;;;;-1.47;82.49;95856.34;4994199;28;19958;-74
2023/02/26 01:39:12;;;;;;;;;;;;;;;-1.49;81.48;95851.38;4988955;28;19951;-74
2023/02/26 01:41:47;;;;;;;;;;;;;;;-1.52;81.72;95851.69;4994036;28;19988;-73
2023/02/26 01:44:21;;;;;;;;;;;;;;;-1.55;82.18;95854.56;4995152;28;19959;-73
2023/02/26 01:46:47;;;;;;;;;;;;;;;-1.56;82.12;95855.53;4994054;28;19952;-74
2023/02/26 01:49:15;;;;;;;;;;;;;;;-1.56;81.93;95855.53;4993697;28;20074;-73
2023/02/26 01:51:53;;;;;;;;;;;;;;;-1.56;82.72;95858.09;4991739;28;19952;-73
2023/02/26 01:54:21;;;;;;;;;;;;;;;-1.57;81.84;95850.56;4995009;28;20308;-73
2023/02/26 01:56:49;;;;;;;;;;;;;;;-1.62;82.24;95861.28;4993423;28;19966;-73
2023/02/26 01:59:19;;;;;;;;;;;;;;;-1.63;81.86;95851.97;4994099;28;19959;-73
2023/02/26 02:01:45;;;;;;;;;;;;;;;-1.68;81.55;95854.19;4989311;28;19967;-73
2023/02/26 02:04:13;;;;;;;;;;;;;;;-1.71;82.11;95855.31;4989561;28;19998;-73
2023/02/26 02:06:39;;;;;;;;;;;;;;;-1.71;81.91;95859.66;4993211;28;20446;-75
2023/02/26 02:09:06;;;;;;;;;;;;;;;-1.74;82.12;95857.38;4992996;28;19958;-74
2023/02/26 02:11:32;;;;;;;;;;;;;;;-1.75;81.87;95854.03;4993242;28;20451;-73
2023/02/26 02:14:17;;;;;;;;;;;;;;;-1.79;82.15;95855.28;4993200;28;19957;-72
2023/02/26 02:16:56;;;;;;;;;;;;;;;-1.81;82.37;95858.97;4993357;28;19958;-75
2023/02/26 02:19:25;;;;;;;;;;;;;;;-1.84;82.38;95866.03;4981266;28;19953;-74
2023/02/26 02:22:09;;;;;;;;;;;;;;;-1.87;82.33;95871.50;4992976;28;20416;-74
2023/02/26 02:24:59;;;;;;;;;;;;;;;-1.90;82.98;95874.38;4994314;28;19953;-73
2023/02/26 02:27:34;;;;;;;;;;;;;;;-1.90;82.59;95878.72;4986558;28;19956;-74
2023/02/26 02:30:06;;;;;;;;;;;;;;;-1.94;82.04;95873.06;4991870;28;19994;-75
2023/02/26 02:32:35;;;;;;;;;;;;;;;-1.97;81.78;95875.94;4993000;28;20419;-74
2023/02/26 02:35:07;;;;;;;;;;;;;;;-1.99;82.52;95879.63;4992975;28;19968;-75
2023/02/26 02:37:35;;;;;;;;;;;;;;;-2.00;82.54;95883.94;4994242;28;19958;-73
2023/02/26 02:40:08;;;;;;;;;;;;;;;-1.90;87.77;95924.97;4992722;28;20402;-73
2023/02/26 02:42:36;;;;;;;;;;;;;;;-1.84;83.59;95893.50;4993429;28;19976;-74
2023/02/26 02:45:06;;;;;;;;;;;;;;;-1.84;82.08;95884.03;4992935;28;19945;-77
2023/02/26 02:47:34;;;;;;;;;;;;;;;-1.85;82.10;95879.03;4994165;28;19955;-75
2023/02/26 02:50:04;;;;;;;;;;;;;;;-1.87;82.41;95886.09;4993126;28;19943;-74
2023/02/26 02:52:33;;;;;;;;;;;;;;;-1.90;81.54;95876.13;4992331;28;19957;-74
2023/02/26 02:55:03;;;;;;;;;;;;;;;-1.97;81.81;95882.88;4993025;28;19959;-76
2023/02/26 02:57:34;;;;;;;;;;;;;;;-2.05;82.29;95881.84;4963317;28;19961;-74
2023/02/26 03:00:06;;;;;;;;;;;;;;;-2.07;82.42;95895.81;4993617;28;19956;-73
2023/02/26 03:02:36;;;;;;;;;;;;;;;-2.06;82.18;95887.13;4967478;28;19949;-74
2023/02/26 03:05:02;;;;;;;;;;;;;;;-2.07;82.41;95890.66;4994111;28;20415;-75
2023/02/26 03:07:30;;;;;;;;;;;;;;;-2.10;81.67;95893.53;4992930;28;19949;-74
2023/02/26 03:09:56;;;;;;;;;;;;;;;-2.09;82.52;95892.59;4992761;28;19964;-73
2023/02/26 03:12:24;;;;;;;;;;;;;;;-2.06;82.07;95894.84;4994065;28;19957;-74
2023/02/26 03:14:50;;;;;;;;;;;;;;;-2.07;82.08;95895.81;4975165;28;19958;-76
2023/02/26 03:17:15;;;;;;;;;;;;;;;-2.05;81.58;95897.25;4992073;28;20444;-73
2023/02/26 03:20:00;;;;;;;;;;;;;;;-2.08;81.68;95891.63;4994036;28;19946;-73
2023/02/26 03:22:42;;;;;;;;;;;;;;;-2.08;81.99;95899.31;4993090;28;19960;-73
2023/02/26 03:25:14;;;;;;;;;;;;;;;-2.13;81.93;95901.56;4992779;28;19973;-73
2023/02/26 03:27:47;;;;;;;;;;;;;;;-2.17;81.62;95908.75;4991601;28;19971;-73
2023/02/26 03:30:17;;;;;;;;;;;;;;;-2.21;81.52;95915.16;4992190;28;19960;-74
2023/02/26 03:32:43;;;;;;;;;;;;;;;-2.22;82.02;95921.25;4986584;28;20420;-73
2023/02/26 03:35:14;;;;;;;;;;;;;;;-2.24;81.83;95923.16;4976191;28;19968;-74
2023/02/26 03:37:45;;;;;;;;;;;;;;;-2.32;81.88;95926.47;4996686;28;19955;-74
2023/02/26 03:40:17;;;;;;;;;;;;;;;-2.38;81.44;95916.81;4996137;28;19956;-74
2023/02/26 03:42:47;;;;;;;;;;;;;;;-2.44;82.20;95927.66;4997277;28;20392;-73
2023/02/26 03:45:15;;;;;;;;;;;;;;;-2.46;83.18;95934.72;4996044;28;20404;-73
2023/02/26 03:47:43;;;;;;;;;;;;;;;-2.47;82.20;95933.13;4995957;28;19956;-73
2023/02/26 03:50:14;;;;;;;;;;;;;;;-2.52;82.71;95938.72;4997006;28;19949;-76
2023/02/26 03:52:42;;;;;;;;;;;;;;;-2.48;82.61;95944.31;4997125;28;19952;-73
2023/02/26 03:55:12;;;;;;;;;;;;;;;-2.45;82.66;95936.34;4997026;28;19955;-74
2023/02/26 03:57:38;;;;;;;;;;;;;;;-2.41;82.91;95940.22;4994995;28;20357;-74
2023/02/26 04:00:05;;;;;;;;;;;;;;;-2.34;82.97;95941.22;4994408;28;19967;-74
2023/02/26 04:02:54;;;;;;;;;;;;;;;-2.27;82.47;95928.59;4996293;28;19961;-74
2023/02/26 04:05:24;;;;;;;;;;;;;;;-2.21;82.53;95940.03;4987923;28;19957;-74
2023/02/26 04:07:50;;;;;;;;;;;;;;;-2.18;82.65;95934.59;4995528;28;20415;-73
2023/02/26 04:10:20;;;;;;;;;;;;;;;-2.16;82.24;95930.94;4995488;28;19955;-73
2023/02/26 04:12:46;;;;;;;;;;;;;;;-2.14;82.32;95941.03;4996672;28;19951;-73
2023/02/26 04:15:13;;;;;;;;;;;;;;;-2.11;91.35;96000.63;4995559;28;19974;-73
2023/02/26 04:17:39;;;;;;;;;;;;;;;-2.05;84.24;95935.81;4994901;28;19953;-74
2023/02/26 04:20:11;;;;;;;;;;;;;;;-2.05;82.51;95928.09;4995418;28;19962;-74
2023/02/26 04:22:37;;;;;;;;;;;;;;;-2.12;82.20;95936.53;4996645;28;19948;-75
2023/02/26 04:25:03;;;;;;;;;;;;;;;-2.16;82.15;95935.22;4994512;28;19955;-74
2023/02/26 04:27:29;;;;;;;;;;;;;;;-2.16;82.37;95937.81;4985010;28;20301;-73
2023/02/26 04:29:55;;;;;;;;;;;;;;;-2.17;82.47;95943.91;4994928;28;19998;-75
2023/02/26 04:32:21;;;;;;;;;;;;;;;-2.19;82.40;95940.69;4996497;28;19955;-75
2023/02/26 04:34:47;;;;;;;;;;;;;;;-2.20;82.02;95944.22;4993797;28;19966;-76
2023/02/26 04:37:13;;;;;;;;;;;;;;;-2.19;82.41;95945.81;4977847;28;20442;-74
2023/02/26 04:39:38;;;;;;;;;;;;;;;-2.21;81.89;95938.25;4996125;28;19956;-74
2023/02/26 04:42:04;;;;;;;;;;;;;;;-2.23;81.90;95945.31;4995513;28;20065;-74
2023/02/26 04:44:30;;;;;;;;;;;;;;;-2.28;82.09;95950.09;4993616;28;19989;-74
2023/02/26 04:46:56;;;;;;;;;;;;;;;-2.34;82.33;95966.09;4977401;28;20379;-74
2023/02/26 04:49:22;;;;;;;;;;;;;;;-2.37;82.82;95966.38;4996172;28;20017;-74
2023/02/26 04:51:48;;;;;;;;;;;;;;;-2.47;82.68;95959.59;4994771;28;19956;-74
2023/02/26 04:54:14;;;;;;;;;;;;;;;-2.51;82.68;95965.97;4996047;28;19960;-74
2023/02/26 04:56:40;;;;;;;;;;;;;;;-2.52;82.92;95966.94;4994582;28;19999;-73
2023/02/26 04:59:06;;;;;;;;;;;;;;;-2.37;100.00;96016.00;4977907;28;19964;-74
2023/02/26 05:01:32;;;;;;;;;;;;;;;-2.11;93.63;95982.66;4994805;28;19958;-74
2023/02/26 05:03:58;;;;;;;;;;;;;;;-2.03;95.79;95996.53;4994930;28;20489;-75
2023/02/26 05:06:24;;;;;;;;;;;;;;;-1.82;100.00;96017.53;4994549;28;19945;-76
2023/02/26 05:08:50;;;;;;;;;;;;;;;-1.56;100.00;96009.78;4994873;28;19961;-74
2023/02/26 05:11:16;;;;;;;;;;;;;;;-1.42;97.88;96013.56;4994779;28;19951;-74
2023/02/26 05:13:42;;;;;;;;;;;;;;;-1.28;94.03;95996.72;4994722;28;20443;-75
2023/02/26 05:16:08;;;;;;;;;;;;;;;-1.16;99.86;96021.22;4995292;28;19966;-74
2023/02/26 05:18:34;;;;;;;;;;;;;;;-1.02;96.96;96017.28;4980593;28;20316;-74
2023/02/26 05:20:59;;;;;;;;;;;;;;;-0.89;98.30;96027.91;4994586;28;19947;-74
2023/02/26 05:23:26;;;;;;;;;;;;;;;-0.73;98.87;96028.94;4994490;28;20042;-74
2023/02/26 05:25:54;;;;;;;;;;;;;;;-0.60;95.27;96013.03;4962487;28;19948;-73
2023/02/26 05:28:20;;;;;;;;;;;;;;;-0.51;94.12;96017.22;4993863;28;20363;-75
2023/02/26 05:30:45;;;;;;;;;;;;;;;-0.45;93.97;96024.31;4994271;28;19961;-75
2023/02/26 05:33:11;;;;;;;;;;;;;;;-0.38;94.80;96024.47;4994185;28;19953;-76
2023/02/26 05:35:37;;;;;;;;;;;;;;;-0.45;83.88;95962.50;4995053;28;19966;-75
2023/02/26 05:38:03;;;;;;;;;;;;;;;-0.66;80.89;95940.59;4994193;28;19954;-75
2023/02/26 05:40:29;;;;;;;;;;;;;;;-0.89;81.11;95955.84;4994166;28;20023;-74
2023/02/26 05:42:55;;;;;;;;;;;;;;;-1.13;80.76;95956.59;4994014;28;20087;-74
2023/02/26 05:45:21;;;;;;;;;;;;;;;-1.33;81.07;95961.19;4970941;28;20002;-74
2023/02/26 05:47:47;;;;;;;;;;;;;;;-1.48;81.53;95960.97;4993545;28;19958;-76
2023/02/26 05:50:13;;;;;;;;;;;;;;;-1.62;81.54;95969.28;4994254;28;19985;-74
2023/02/26 05:52:38;;;;;;;;;;;;;;;-1.73;81.47;95972.13;4962863;28;20494;-75
2023/02/26 05:55:05;;;;;;;;;;;;;;;-1.85;81.73;95979.25;4993975;28;19969;-74
2023/02/26 05:57:30;;;;;;;;;;;;;;;-1.96;82.37;95982.09;4993048;28;19954;-74
2023/02/26 05:59:56;;;;;;;;;;;;;;;-2.05;82.35;95988.94;4994553;28;19953;-78
2023/02/26 06:02:22;;;;;;;;;;;;;;;-2.11;82.13;95995.50;4994542;28;20063;-73
2023/02/26 06:04:48;;;;;;;;;;;;;;;-2.19;82.80;95995.44;4993534;28;19983;-74
2023/02/26 06:07:14;;;;;;;;;;;;;;;-2.25;82.78;96008.88;4993944;28;19948;-75
2023/02/26 06:09:40;;;;;;;;;;;;;;;-2.31;83.16;96012.84;4994626;28;20046;-75
2023/02/26 06:12:06;;;;;;;;;;;;;;;-2.34;83.31;96031.09;4993443;28;20315;-74
2023/02/26 06:14:33;;;;;;;;;;;;;;;-2.38;83.19;96032.34;4984884;28;20431;-74
2023/02/26 06:16:59;;;;;;;;;;;;;;;-2.41;83.46;96030.09;4993308;28;19951;-75
2023/02/26 06:19:25;;;;;;;;;;;;;;;-2.45;83.39;96039.03;4993569;28;20329;-74
2023/02/26 06:21:51;;;;;;;;;;;;;;;-2.52;83.71;96043.97;4993666;28;19958;-74
2023/02/26 06:24:16;;;;;;;;;;;;;;;-2.60;84.14;96041.31;4993303;28;20008;-75
2023/02/26 06:26:42;;;;;;;;;;;;;;;-2.65;84.15;96053.75;4977114;28;19952;-75
2023/02/26 06:29:08;;;;;;;;;;;;;;;-2.68;84.55;96062.56;4994275;28;20422;-74
2023/02/26 06:31:34;;;;;;;;;;;;;;;-2.70;84.67;96064.47;4994209;28;19949;-74
2023/02/26 06:34:00;;;;;;;;;;;;;;;-2.70;84.75;96072.16;4994753;28;19985;-74
2023/02/26 06:36:26;;;;;;;;;;;;;;;-2.76;84.56;96071.94;4994275;28;20007;-74
2023/02/26 06:38:52;;;;;;;;;;;;;;;-2.88;85.47;96079.00;4994461;28;20405;-74
2023/02/26 06:41:18;;;;;;;;;;;;;;;-2.89;85.55;96093.59;4993116;28;20337;-74
2023/02/26 06:43:43;;;;;;;;;;;;;;;-2.85;85.52;96096.72;4994543;28;19958;-74
2023/02/26 06:46:10;;;;;;;;;;;;;;;-2.79;85.70;96098.69;4993133;28;19948;-73
2023/02/26 06:48:36;;;;;;;;;;;;;;;-2.55;85.63;96097.34;4993711;28;19943;-73
2023/02/26 06:51:02;;;;;;;;;;;;;;;-2.32;84.04;96097.75;4994424;28;20010;-74
2023/02/26 06:53:28;;;;;;;;;;;;;;;-2.29;83.79;96087.16;4994371;28;20007;-75
2023/02/26 06:55:54;;;;;;;;;;;;;;;-2.35;83.87;96093.72;4994153;28;19959;-74
2023/02/26 06:58:20;;;;;;;;;;;;;;;-2.39;84.25;96096.69;4994107;28;20017;-74
2023/02/26 07:00:46;;;;;;;;;;;;;;;-2.49;84.09;96105.28;4993966;28;19957;-74
2023/02/26 07:03:13;;;;;;;;;;;;;;;-2.57;84.78;96106.94;4994315;28;19945;-74
2023/02/26 07:05:40;;;;;;;;;;;;;;;-2.57;84.73;96106.94;4993972;28;20294;-74
2023/02/26 07:08:06;;;;;;;;;;;;;;;-2.17;84.85;96116.00;4994076;28;19949;-74
2023/02/26 07:10:33;;;;;;;;;;;;;;;-1.75;82.92;96099.97;4996080;28;20328;-74
2023/02/26 07:12:59;;;;;;;;;;;;;;;-1.58;82.63;96099.13;4997854;28;20323;-74
2023/02/26 07:15:25;;;;;;;;;;;;;;;-1.70;81.49;96096.00;4997816;28;19957;-75
2023/02/26 07:17:51;;;;;;;;;;;;;;;-1.84;82.14;96102.50;4997812;28;19966;-74
2023/02/26 07:20:17;;;;;;;;;;;;;;;-1.98;82.48;96112.50;4984668;28;19951;-74
2023/02/26 07:22:43;;;;;;;;;;;;;;;-2.11;82.90;96118.81;4997902;28;19949;-74
2023/02/26 07:25:10;;;;;;;;;;;;;;;-2.16;83.93;96123.59;4997686;28;19963;-74
2023/02/26 07:27:36;;;;;;;;;;;;;;;-2.25;83.61;96122.69;4997902;28;20033;-74
2023/02/26 07:30:03;;;;;;;;;;;;;;;-2.27;83.36;96127.19;4997501;28;19986;-74
2023/02/26 07:32:29;;;;;;;;;;;;;;;-2.21;84.23;96137.81;4997142;28;19958;-74
2023/02/26 07:34:55;;;;;;;;;;;;;;;-2.19;85.05;96148.75;4997474;28;19985;-74
2023/02/26 07:37:21;;;;;;;;;;;;;;;-1.98;83.95;96136.41;4997489;28;19944;-74
2023/02/26 07:39:47;;;;;;;;;;;;;;;-1.67;83.71;96136.03;4997190;28;19995;-74
2023/02/26 07:42:13;;;;;;;;;;;;;;;-1.48;82.73;96127.34;4997568;28;19977;-74
2023/02/26 07:44:39;;;;;;;;;;;;;;;-1.41;82.73;96130.09;4997333;28;20057;-75
2023/02/26 07:47:04;;;;;;;;;;;;;;;-1.30;82.37;96128.09;4997241;28;19955;-74
2023/02/26 07:49:32;;;;;;;;;;;;;;;-1.02;82.35;96123.59;4996549;28;19956;-74
2023/02/26 07:51:58;;;;;;;;;;;;;;;-0.82;80.99;96106.16;5006860;28;20014;-75
2023/02/26 07:54:24;;;;;;;;;;;;;;;-0.60;80.48;96101.38;4997669;28;20030;-74
2023/02/26 07:56:50;;;;;;;;;;;;;;;-0.56;79.54;96087.25;4996921;28;20002;-74
2023/02/26 07:59:16;;;;;;;;;;;;;;;-0.51;78.76;96087.56;4994613;28;19955;-74
2023/02/26 08:01:42;;;;;;;;;;;;;;;-0.59;79.56;96086.72;4994258;28;20049;-75
2023/02/26 08:04:08;;;;;;;;;;;;;;;-0.50;79.54;96091.75;4988419;28;19998;-74
2023/02/26 08:06:34;;;;;;;;;;;;;;;-0.38;77.57;96071.66;4997279;28;19948;-75
2023/02/26 08:09:00;;;;;;;;;;;;;;;-0.46;79.13;96085.34;4988737;28;19947;-74
2023/02/26 08:11:26;;;;;;;;;;;;;;;-0.66;79.17;96089.94;4996867;28;19952;-73
2023/02/26 08:13:52;;;;;;;;;;;;;;;-0.92;78.99;96097.75;4979203;28;20008;-74
2023/02/26 08:16:18;;;;;;;;;;;;;;;-1.18;79.88;96118.34;4996603;28;19979;-76
2023/02/26 08:18:44;;;;;;;;;;;;;;;-1.37;80.81;96131.41;4997052;28;20042;-76
2023/02/26 08:21:10;;;;;;;;;;;;;;;-1.54;81.26;96140.78;4996125;28;20320;-75
2023/02/26 08:23:36;;;;;;;;;;;;;;;-1.70;81.93;96136.31;4979288;28;19961;-74
2023/02/26 08:26:04;;;;;;;;;;;;;;;-1.78;82.41;96141.41;4996850;28;19950;-75
2023/02/26 08:28:30;;;;;;;;;;;;;;;-1.83;82.11;96146.97;4996220;28;19940;-75
2023/02/26 08:30:56;;;;;;;;;;;;;;;-1.85;83.65;96166.88;4996669;28;19954;-74
2023/02/26 08:33:22;;;;;;;;;;;;;;;-1.89;82.57;96147.56;4996552;28;19945;-74
2023/02/26 08:35:48;;;;;;;;;;;;;;;-1.93;83.20;96156.53;4995648;28;19959;-75
2023/02/26 08:38:14;;;;;;;;;;;;;;;-1.86;83.59;96155.78;4996799;28;19961;-75
2023/02/26 08:40:40;;;;;;;;;;;;;;;-1.68;83.89;96153.22;4996602;28;19994;-74
2023/02/26 08:43:06;;;;;;;;;;;;;;;-1.53;85.20;96168.94;4996096;28;19971;-75
2023/02/26 08:45:32;;;;;;;;;;;;;;;-1.63;87.31;96187.00;4995991;28;19961;-75
2023/02/26 08:47:58;;;;;;;;;;;;;;;-1.78;88.16;96193.63;4978609;28;19950;-75
2023/02/26 08:50:24;;;;;;;;;;;;;;;-1.87;87.60;96186.78;4996697;28;19999;-75
2023/02/26 08:52:50;;;;;;;;;;;;;;;-1.91;87.91;96199.13;4996378;28;19947;-75
2023/02/26 08:55:16;;;;;;;;;;;;;;;-1.96;87.99;96198.75;4995935;28;20017;-75
2023/02/26 08:57:42;;;;;;;;;;;;;;;-1.97;88.67;96202.28;4978622;28;19957;-74
2023/02/26 09:00:11;;;;;;;;;;;;;;;-1.93;87.69;96195.06;4978480;28;20003;-75
2023/02/26 09:02:37;;;;;;;;;;;;;;;-1.82;87.86;96194.06;4962486;28;19954;-75
2023/02/26 09:05:04;;;;;;;;;;;;;;;-1.71;86.77;96188.69;4993589;28;19957;-75
2023/02/26 09:07:30;;;;;;;;;;;;;;;-1.62;86.36;96187.81;4993433;28;19962;-75
2023/02/26 09:09:56;;;;;;;;;;;;;;;-1.59;86.24;96187.53;4973600;28;19963;-75
2023/02/26 09:12:22;;;;;;;;;;;;;;;-1.59;85.71;96186.72;4995195;28;19954;-75
2023/02/26 09:14:47;;;;;;;;;;;;;;;-1.65;85.15;96181.19;4994662;28;20378;-74
2023/02/26 09:17:13;;;;;;;;;;;;;;;-1.73;85.59;96182.91;4994959;28;19977;-75
2023/02/26 09:19:39;;;;;;;;;;;;;;;-1.81;85.31;96195.69;4993579;28;19964;-76
2023/02/26 09:22:05;;;;;;;;;;;;;;;-1.91;84.89;96194.00;4995528;28;20306;-75
2023/02/26 09:24:31;;;;;;;;;;;;;;;-1.99;85.51;96200.81;4995488;28;20319;-74
2023/02/26 09:26:57;;;;;;;;;;;;;;;-2.06;86.13;96211.69;4993054;28;19956;-74
2023/02/26 09:29:23;;;;;;;;;;;;;;;-2.04;87.28;96229.50;4977090;28;19958;-74
2023/02/26 09:31:49;;;;;;;;;;;;;;;-2.06;87.40;96218.56;4976369;28;20018;-76
2023/02/26 09:34:14;;;;;;;;;;;;;;;-2.04;87.73;96229.50;4991205;28;20040;-75
2023/02/26 09:36:42;;;;;;;;;;;;;;;-1.91;89.20;96249.69;4995076;28;20430;-75
2023/02/26 09:39:08;;;;;;;;;;;;;;;-1.76;87.55;96230.28;4994890;28;19971;-74
2023/02/26 09:41:38;;;;;;;;;;;;;;;-1.66;86.39;96225.88;4990660;28;19972;-76
2023/02/26 09:44:31;;;;;;;;;;;;;;;-1.66;84.28;96205.31;4995088;28;19955;-75
2023/02/26 09:47:03;;;;;;;;;;;;;;;-1.67;85.86;96229.38;4974549;28;19950;-74
2023/02/26 09:49:45;;;;;;;;;;;;;;;-1.69;86.12;96236.44;4995030;28;19947;-74
2023/02/26 09:52:23;;;;;;;;;;;;;;;-1.68;85.57;96235.50;4994927;28;20280;-75
2023/02/26 09:54:55;;;;;;;;;;;;;;;-1.72;85.30;96234.19;4995010;28;19956;-75
2023/02/26 09:57:32;;;;;;;;;;;;;;;-1.74;85.03;96232.69;4976604;28;19960;-75
2023/02/26 09:59:59;;;;;;;;;;;;;;;-1.75;84.88;96231.09;4994777;28;19958;-75
2023/02/26 10:02:44;;;;;;;;;;;;;;;-1.78;84.76;96227.03;4994200;28;19946;-75
2023/02/26 10:05:13;;;;;;;;;;;;;;;-1.57;100.00;96275.59;4993809;28;20311;-75
2023/02/26 10:07:48;;;;;;;;;;;;;;;-1.15;89.47;96231.28;4992808;28;19972;-74
2023/02/26 10:10:28;;;;;;;;;;;;;;;-1.12;84.44;96194.94;4993671;28;19949;-75
2023/02/26 10:12:54;;;;;;;;;;;;;;;-1.27;84.24;96189.53;4994688;28;19945;-74
2023/02/26 10:15:30;;;;;;;;;;;;;;;-1.39;83.59;96195.06;4993665;28;19948;-75
2023/02/26 10:17:56;;;;;;;;;;;;;;;-1.50;84.15;96209.75;4993659;28;19952;-75
2023/02/26 10:20:29;;;;;;;;;;;;;;;-1.56;85.26;96219.84;4993392;28;19952;-75
2023/02/26 10:23:10;;;;;;;;;;;;;;;-1.61;84.82;96229.78;4990649;28;19943;-76
2023/02/26 10:25:48;;;;;;;;;;;;;;;-1.65;84.95;96235.19;4994396;28;20321;-75
2023/02/26 10:28:17;;;;;;;;;;;;;;;-1.62;85.18;96223.81;4982846;28;20427;-74
2023/02/26 10:30:45;;;;;;;;;;;;;;;-1.62;83.59;96228.94;4994329;28;19969;-75
2023/02/26 10:33:11;;;;;;;;;;;;;;;-1.65;84.59;96236.97;4994202;28;19943;-76
2023/02/26 10:35:41;;;;;;;;;;;;;;;-1.60;85.22;96246.81;4994045;28;19944;-75
2023/02/26 10:38:11;;;;;;;;;;;;;;;-1.57;84.96;96244.75;4987404;28;19952;-75
2023/02/26 10:40:52;;;;;;;;;;;;;;;-1.52;84.17;96239.97;4994294;28;19967;-75
2023/02/26 10:43:18;;;;;;;;;;;;;;;-1.50;83.07;96227.75;4994198;28;19954;-75
2023/02/26 10:45:56;;;;;;;;;;;;;;;-1.40;83.82;96227.69;4993578;28;19958;-75
2023/02/26 10:48:25;;;;;;;;;;;;;;;-1.20;84.63;96236.03;4992918;28;19950;-75
2023/02/26 10:50:52;;;;;;;;;;;;;;;-1.07;83.95;96225.34;4992540;28;19955;-74
2023/02/26 10:53:20;;;;;;;;;;;;;;;-0.97;82.69;96215.78;4992016;28;19951;-75
2023/02/26 10:55:52;;;;;;;;;;;;;;;-0.88;83.05;96212.31;4992850;28;20392;-74
2023/02/26 10:58:25;;;;;;;;;;;;;;;-0.80;85.00;96244.19;4992110;28;20408;-75
2023/02/26 11:00:53;;;;;;;;;;;;;;;-0.79;85.18;96238.09;4987608;28;19963;-75
2023/02/26 11:03:20;;;;;;;;;;;;;;;-0.87;85.07;96241.41;4993680;28;19948;-75
2023/02/26 11:05:47;;;;;;;;;;;;;;;-0.73;90.24;96258.91;4974039;28;19959;-75
2023/02/26 11:08:24;;;;;;;;;;;;;;;-0.63;85.29;96230.44;4992393;28;19953;-77
2023/02/26 11:10:51;;;;;;;;;;;;;;;-0.67;85.08;96240.25;4980651;28;19991;-74
2023/02/26 11:13:18;;;;;;;;;;;;;;;-0.73;85.10;96237.50;4964805;28;19958;-75
2023/02/26 11:15:46;;;;;;;;;;;;;;;-0.83;84.94;96238.38;4992618;28;19970;-75
2023/02/26 11:18:15;;;;;;;;;;;;;;;-0.91;85.36;96246.06;4989184;28;19945;-74
2023/02/26 11:20:42;;;;;;;;;;;;;;;-0.94;84.94;96240.44;4988664;28;20033;-74
2023/02/26 11:23:13;;;;;;;;;;;;;;;-0.95;84.65;96241.38;4990779;28;19956;-74
2023/02/26 11:25:39;;;;;;;;;;;;;;;-0.93;85.11;96247.19;4994010;28;19944;-74
2023/02/26 11:28:07;;;;;;;;;;;;;;;-0.94;84.50;96237.84;4993081;28;19958;-75
2023/02/26 11:30:37;;;;;;;;;;;;;;;-0.96;84.61;96250.06;4993298;28;20316;-76
2023/02/26 11:33:06;;;;;;;;;;;;;;;-0.92;84.88;96254.75;4992331;28;19947;-75
2023/02/26 11:35:32;;;;;;;;;;;;;;;-0.80;85.26;96257.88;4993707;28;20345;-76
2023/02/26 11:37:59;;;;;;;;;;;;;;;-0.70;84.79;96258.56;4992838;28;19998;-75
2023/02/26 11:40:39;;;;;;;;;;;;;;;-0.62;83.74;96244.94;4993771;28;19962;-75
2023/02/26 11:43:07;;;;;;;;;;;;;;;-0.59;84.11;96246.41;4973003;28;19972;-75
2023/02/26 11:45:35;;;;;;;;;;;;;;;-0.60;83.24;96240.47;4992922;28;20330;-75
2023/02/26 11:48:06;;;;;;;;;;;;;;;-0.56;83.13;96230.66;4993212;28;20320;-76
2023/02/26 11:50:37;;;;;;;;;;;;;;;-0.48;83.55;96238.44;4974336;28;19950;-77
2023/02/26 11:53:04;;;;;;;;;;;;;;;-0.39;83.03;96232.34;4967983;28;20403;-76
2023/02/26 11:55:32;;;;;;;;;;;;;;;-0.36;82.63;96229.44;4991071;28;19944;-77
2023/02/26 11:57:58;;;;;;;;;;;;;;;-0.35;81.85;96223.34;4990522;28;19979;-76
2023/02/26 12:00:34;;;;;;;;;;;;;;;-0.36;81.61;96218.34;4991244;28;20382;-76
2023/02/26 12:03:06;;;;;;;;;;;;;;;-0.48;81.02;96218.63;4995431;28;19952;-76
2023/02/26 12:05:32;;;;;;;;;;;;;;;-0.52;81.58;96226.81;4994871;28;20321;-76
2023/02/26 12:07:58;;;;;;;;;;;;;;;-0.57;81.54;96226.47;4996487;28;19953;-76
2023/02/26 12:10:34;;;;;;;;;;;;;;;-0.59;81.83;96238.69;4996328;28;19959;-76
2023/02/26 12:13:00;;;;;;;;;;;;;;;-0.62;82.04;96235.44;4986032;28;19953;-76
2023/02/26 12:15:27;;;;;;;;;;;;;;;-0.67;82.00;96242.03;4996501;28;19950;-76
2023/02/26 12:17:53;;;;;;;;;;;;;;;-0.66;82.26;96239.28;4995830;28;19968;-75
2023/02/26 12:20:22;;;;;;;;;;;;;;;-0.62;82.33;96230.28;4996690;28;20022;-76
2023/02/26 12:23:06;;;;;;;;;;;;;;;-0.59;82.33;96238.69;4996798;28;19956;-75
2023/02/26 12:25:35;;;;;;;;;;;;;;;-0.63;81.03;96226.13;4996858;28;19943;-75
2023/02/26 12:28:08;;;;;;;;;;;;;;;-0.68;82.02;96236.06;4996543;28;19947;-76
2023/02/26 12:30:53;;;;;;;;;;;;;;;-0.68;81.97;96238.63;4996921;28;19945;-75
2023/02/26 12:33:28;;;;;;;;;;;;;;;-0.69;82.43;96243.97;4996581;28;19946;-75
2023/02/26 12:36:01;;;;;;;;;;;;;;;-0.71;81.79;96238.94;4996229;28;19947;-76
2023/02/26 12:38:35;;;;;;;;;;;;;;;-0.72;81.54;96231.38;4996615;28;19951;-76
2023/02/26 12:41:08;;;;;;;;;;;;;;;-0.69;79.78;96221.59;4996493;28;19956;-75
2023/02/26 12:43:41;;;;;;;;;;;;;;;-0.69;80.82;96224.16;4996430;28;19953;-75
2023/02/26 12:46:20;;;;;;;;;;;;;;;-0.70;81.89;96232.81;4979164;28;19950;-75
2023/02/26 12:49:21;;;;;;;;;;;;;;;-0.76;82.38;96250.66;4996249;28;19949;-76
2023/02/26 12:52:06;;;;;;;;;;;;;;;-0.90;82.68;96247.69;4960788;28;19956;-75
2023/02/26 12:54:46;;;;;;;;;;;;;;;-0.93;82.57;96247.97;4994435;28;19946;-74